createdAt,value
2022-11-18T00:01:23.424Z,10.86
2022-11-18T00:03:53.056Z,10.84
2022-11-18T00:06:23.110Z,10.85
2022-11-18T00:08:51.316Z,10.85
2022-11-18T00:11:36.592Z,10.85
2022-11-18T00:14:20.623Z,10.82
2022-11-18T00:16:51.287Z,10.84
2022-11-18T00:19:20.374Z,10.87
2022-11-18T00:21:48.554Z,10.89
2022-11-18T00:24:16.644Z,10.84
2022-11-18T00:26:46.213Z,10.72
2022-11-18T00:29:14.769Z,10.62
2022-11-18T00:31:43.306Z,10.60
2022-11-18T00:34:13.987Z,10.51
2022-11-18T00:36:42.259Z,10.43
2022-11-18T00:39:11.827Z,10.38
2022-11-18T00:41:57.254Z,10.32
2022-11-18T00:44:26.759Z,10.31
2022-11-18T00:46:55.219Z,10.21
2022-11-18T00:49:23.557Z,10.22
2022-11-18T00:51:52.762Z,10.16
2022-11-18T00:54:20.937Z,10.08
2022-11-18T00:56:49.053Z,10.14
2022-11-18T00:59:17.531Z,10.19
2022-11-18T01:01:47.346Z,10.23
2022-11-18T01:04:15.612Z,10.26
2022-11-18T01:06:43.788Z,10.32
2022-11-18T01:09:13.023Z,10.28
2022-11-18T01:11:58.487Z,10.18
2022-11-18T01:14:27.494Z,10.06
2022-11-18T01:16:57.885Z,10.02
2022-11-18T01:19:26.702Z,10.00
2022-11-18T01:21:56.535Z,9.98
2022-11-18T01:24:24.605Z,10.00
2022-11-18T01:26:52.701Z,9.99
2022-11-18T01:29:20.919Z,10.03
2022-11-18T01:32:17.421Z,10.22
2022-11-18T01:34:38.633Z,10.33
2022-11-18T01:37:06.769Z,10.42
2022-11-18T01:39:35.042Z,10.43
2022-11-18T01:42:03.174Z,10.50
2022-11-18T01:45:05.232Z,10.53
2022-11-18T01:47:37.099Z,10.61
2022-11-18T01:50:08.213Z,10.83
2022-11-18T01:52:37.158Z,10.92
2022-11-18T01:55:11.668Z,10.95
2022-11-18T01:57:40.637Z,11.15
2022-11-18T02:00:09.753Z,11.12
2022-11-18T02:02:39.149Z,11.21
2022-11-18T02:05:11.768Z,11.20
2022-11-18T02:07:43.015Z,11.19
2022-11-18T02:10:19.699Z,11.21
2022-11-18T02:12:48.083Z,11.30
2022-11-18T02:15:17.641Z,11.31
2022-11-18T02:17:55.763Z,11.37
2022-11-18T02:20:43.466Z,11.35
2022-11-18T02:23:52.810Z,11.36
2022-11-18T02:26:50.394Z,11.28
2022-11-18T02:29:22.615Z,11.12
2022-11-18T02:31:56.697Z,10.98
2022-11-18T02:34:38.181Z,10.94
2022-11-18T02:37:14.170Z,10.79
2022-11-18T02:39:50.044Z,10.65
2022-11-18T02:42:19.245Z,10.47
2022-11-18T02:44:54.041Z,10.42
2022-11-18T02:47:23.454Z,10.35
2022-11-18T02:49:56.773Z,10.29
2022-11-18T02:52:27.169Z,10.27
2022-11-18T02:54:56.940Z,10.20
2022-11-18T02:57:26.971Z,10.07
2022-11-18T02:59:56.479Z,9.97
2022-11-18T03:02:24.860Z,9.88
2022-11-18T03:04:56.208Z,9.69
2022-11-18T03:07:29.270Z,9.53
2022-11-18T03:09:59.806Z,9.55
2022-11-18T03:12:38.138Z,9.63
2022-11-18T03:15:20.052Z,9.70
2022-11-18T03:17:56.973Z,9.81
2022-11-18T03:20:29.952Z,9.89
2022-11-18T03:23:05.930Z,10.00
2022-11-18T03:25:39.118Z,10.03
2022-11-18T03:28:14.181Z,9.98
2022-11-18T03:30:48.915Z,10.00
2022-11-18T03:33:22.848Z,10.08
2022-11-18T03:35:53.842Z,10.08
2022-11-18T03:38:28.013Z,10.06
2022-11-18T03:40:59.829Z,10.11
2022-11-18T03:43:33.269Z,10.09
2022-11-18T03:46:08.396Z,10.02
2022-11-18T03:48:42.880Z,10.04
2022-11-18T03:51:15.989Z,10.00
2022-11-18T03:53:49.884Z,9.99
2022-11-18T03:56:23.892Z,10.00
2022-11-18T03:58:58.516Z,9.98
2022-11-18T04:01:34.895Z,10.03
2022-11-18T04:04:03.337Z,10.09
2022-11-18T04:06:38.758Z,10.13
2022-11-18T04:09:13.020Z,10.13
2022-11-18T04:12:04.625Z,10.16
2022-11-18T04:14:34.797Z,10.11
2022-11-18T04:17:09.010Z,10.05
2022-11-18T04:19:37.345Z,10.13
2022-11-18T04:22:05.642Z,9.95
2022-11-18T04:24:34.005Z,9.91
2022-11-18T04:27:02.702Z,9.82
2022-11-18T04:29:30.905Z,9.88
2022-11-18T04:31:59.103Z,9.96
2022-11-18T04:34:29.122Z,9.93
2022-11-18T04:36:57.287Z,9.87
2022-11-18T04:39:25.543Z,9.80
2022-11-18T04:41:59.464Z,9.78
2022-11-18T04:44:30.101Z,9.70
2022-11-18T04:47:01.025Z,9.76
2022-11-18T04:49:31.048Z,9.76
2022-11-18T04:51:59.497Z,9.90
2022-11-18T04:54:28.814Z,10.02
2022-11-18T04:56:57.361Z,10.08
2022-11-18T04:59:26.701Z,10.11
2022-11-18T05:01:56.025Z,10.14
2022-11-18T05:04:26.347Z,10.13
2022-11-18T05:06:55.866Z,10.18
2022-11-18T05:09:30.242Z,10.32
2022-11-18T05:12:17.098Z,10.32
2022-11-18T05:14:49.641Z,10.19
2022-11-18T05:17:19.442Z,10.09
2022-11-18T05:19:47.763Z,10.01
2022-11-18T05:22:17.297Z,9.99
2022-11-18T05:24:45.425Z,10.04
2022-11-18T05:27:13.985Z,9.96
2022-11-18T05:29:42.179Z,9.96
2022-11-18T05:32:10.565Z,9.93
2022-11-18T05:34:39.054Z,9.98
2022-11-18T05:37:07.140Z,10.02
2022-11-18T05:39:36.749Z,10.07
2022-11-18T05:42:22.368Z,10.30
2022-11-18T05:44:57.526Z,10.25
2022-11-18T05:47:26.723Z,10.21
2022-11-18T05:49:54.936Z,10.17
2022-11-18T05:52:23.027Z,10.13
2022-11-18T05:54:52.863Z,10.46
2022-11-18T05:57:20.945Z,10.59
2022-11-18T05:59:49.080Z,10.67
2022-11-18T06:02:20.988Z,10.63
2022-11-18T06:04:51.705Z,10.77
2022-11-18T06:07:23.105Z,10.85
2022-11-18T06:10:02.090Z,10.94
2022-11-18T06:12:37.300Z,11.14
2022-11-18T06:15:11.506Z,11.35
2022-11-18T06:17:43.156Z,11.65
2022-11-18T06:20:12.118Z,11.72
2022-11-18T06:22:46.145Z,11.80
2022-11-18T06:25:16.733Z,11.89
2022-11-18T06:27:45.511Z,11.97
2022-11-18T06:30:15.029Z,12.04
2022-11-18T06:32:43.336Z,12.15
2022-11-18T06:35:12.010Z,12.25
2022-11-18T06:37:40.093Z,12.28
2022-11-18T06:40:09.756Z,12.35
2022-11-18T06:42:56.725Z,12.46
2022-11-18T06:45:24.937Z,12.52
2022-11-18T06:47:52.033Z,12.59
2022-11-18T06:50:20.366Z,12.70
2022-11-18T06:52:48.469Z,12.83
2022-11-18T06:55:16.794Z,12.93
2022-11-18T06:57:47.257Z,12.88
2022-11-18T07:00:16.961Z,13.05
2022-11-18T07:02:45.077Z,13.27
2022-11-18T07:05:13.216Z,13.36
2022-11-18T07:07:42.456Z,13.50
2022-11-18T07:10:11.454Z,13.71
2022-11-18T07:12:39.605Z,13.77
2022-11-18T07:15:10.237Z,13.79
2022-11-18T07:17:38.289Z,13.74
2022-11-18T07:20:07.193Z,13.85
2022-11-18T07:22:35.280Z,13.85
2022-11-18T07:25:03.446Z,13.95
2022-11-18T07:27:31.515Z,13.95
2022-11-18T07:29:59.684Z,13.87
2022-11-18T07:32:29.145Z,13.69
2022-11-18T07:34:57.246Z,13.44
2022-11-18T07:37:25.394Z,13.28
2022-11-18T07:39:53.475Z,13.20
2022-11-18T07:42:21.535Z,13.21
2022-11-18T07:44:49.612Z,13.20
2022-11-18T07:47:17.731Z,13.20
2022-11-18T07:49:48.269Z,13.26
2022-11-18T07:52:16.477Z,13.41
2022-11-18T07:54:44.513Z,13.69
2022-11-18T07:57:12.557Z,13.90
2022-11-18T07:59:40.774Z,13.99
2022-11-18T08:02:12.245Z,14.25
2022-11-18T08:04:40.725Z,14.44
2022-11-18T08:07:12.064Z,14.52
2022-11-18T08:09:40.178Z,14.58
2022-11-18T08:12:08.565Z,14.55
2022-11-18T08:14:36.668Z,14.67
2022-11-18T08:17:04.796Z,14.75
2022-11-18T08:19:35.440Z,14.91
2022-11-18T08:22:03.530Z,14.98
2022-11-18T08:24:33.108Z,15.32
2022-11-18T08:27:01.229Z,15.46
2022-11-18T08:29:29.520Z,15.71
2022-11-18T08:31:57.973Z,15.66
2022-11-18T08:34:26.156Z,15.85
2022-11-18T08:36:54.269Z,15.75
2022-11-18T08:39:22.429Z,15.76
2022-11-18T08:41:51.934Z,15.64
2022-11-18T08:44:20.050Z,15.35
2022-11-18T08:46:48.237Z,15.11
2022-11-18T08:49:17.017Z,15.16
2022-11-18T08:51:45.433Z,15.30
2022-11-18T08:54:13.520Z,15.35
2022-11-18T08:56:41.960Z,15.31
2022-11-18T08:59:12.583Z,15.35
2022-11-18T09:01:42.079Z,15.67
2022-11-18T09:04:10.416Z,15.78
2022-11-18T09:06:40.400Z,15.82
2022-11-18T09:09:09.111Z,15.71
2022-11-18T09:11:39.744Z,15.86
2022-11-18T09:16:57.802Z,15.90
2022-11-18T09:22:14.317Z,16.22
2022-11-18T09:24:43.610Z,16.25
2022-11-18T09:27:16.709Z,16.13
2022-11-18T09:29:45.281Z,15.96
2022-11-18T09:32:14.978Z,16.28
2022-11-18T09:34:43.052Z,16.48
2022-11-18T09:37:11.323Z,16.68
2022-11-18T09:39:39.458Z,16.73
2022-11-18T09:42:22.280Z,16.77
2022-11-18T09:45:08.625Z,16.82
2022-11-18T09:47:41.417Z,16.98
2022-11-18T09:50:47.928Z,17.13
2022-11-18T09:53:12.281Z,17.27
2022-11-18T09:55:42.273Z,17.31
2022-11-18T09:58:18.354Z,16.98
2022-11-18T10:00:46.872Z,16.87
2022-11-18T10:03:23.842Z,16.75
2022-11-18T10:05:57.170Z,16.83
2022-11-18T10:08:29.849Z,16.94
2022-11-18T10:11:07.994Z,16.81
2022-11-18T10:13:53.221Z,16.55
2022-11-18T10:16:42.192Z,16.39
2022-11-18T10:19:25.701Z,16.27
2022-11-18T10:22:13.845Z,16.15
2022-11-18T10:24:50.538Z,16.10
2022-11-18T10:27:19.419Z,15.97
2022-11-18T10:29:54.327Z,15.92
2022-11-18T10:32:22.957Z,15.99
2022-11-18T10:34:54.077Z,15.97
2022-11-18T10:37:45.770Z,15.93
2022-11-18T10:40:26.032Z,15.94
2022-11-18T10:42:54.181Z,15.72
2022-11-18T10:45:27.601Z,15.53
2022-11-18T10:48:04.296Z,15.48
2022-11-18T10:50:38.530Z,15.52
2022-11-18T10:53:07.754Z,15.56
2022-11-18T10:55:35.995Z,15.55
2022-11-18T10:58:11.527Z,15.61
2022-11-18T11:00:43.480Z,15.47
2022-11-18T11:03:37.203Z,15.58
2022-11-18T11:06:38.032Z,15.60
2022-11-18T11:09:09.597Z,15.56
2022-11-18T11:11:40.525Z,15.64
2022-11-18T11:14:24.836Z,15.68
2022-11-18T11:17:00.117Z,15.60
2022-11-18T11:19:34.352Z,15.42
2022-11-18T11:22:03.862Z,15.46
2022-11-18T11:24:32.150Z,15.49
2022-11-18T11:30:18.000Z,15.45
2022-11-18T11:33:20.131Z,15.21
2022-11-18T11:35:57.449Z,15.24
2022-11-18T11:38:40.692Z,15.31
2022-11-18T11:41:21.060Z,15.23
2022-11-18T11:43:59.965Z,15.21
2022-11-18T11:46:39.253Z,15.30
2022-11-18T11:49:19.179Z,15.40
2022-11-18T11:51:53.458Z,15.40
2022-11-18T11:54:34.740Z,15.44
2022-11-18T11:57:06.458Z,15.50
2022-11-18T11:59:45.210Z,15.48
2022-11-18T12:02:33.744Z,15.50
2022-11-18T12:05:09.645Z,15.56
2022-11-18T12:07:43.679Z,15.50
2022-11-18T12:10:33.745Z,15.38
2022-11-18T12:13:18.499Z,15.29
2022-11-18T12:16:02.435Z,15.21
2022-11-18T12:18:38.722Z,15.09
2022-11-18T12:21:06.927Z,15.07
2022-11-18T12:23:35.620Z,15.04
2022-11-18T12:26:07.351Z,14.98
2022-11-18T12:28:41.432Z,14.99
2022-11-18T12:31:35.694Z,15.06
2022-11-18T12:34:20.286Z,15.02
2022-11-18T12:36:49.054Z,14.96
2022-11-18T12:39:49.063Z,14.86
2022-11-18T12:42:57.697Z,14.78
2022-11-18T12:46:01.935Z,14.78
2022-11-18T12:48:35.748Z,14.79
2022-11-18T12:51:12.356Z,14.79
2022-11-18T12:53:42.498Z,14.77
2022-11-18T12:56:23.804Z,14.76
2022-11-18T12:58:55.990Z,14.74
2022-11-18T13:01:26.848Z,14.74
2022-11-18T13:04:08.580Z,14.84
2022-11-18T13:06:39.195Z,14.82
2022-11-18T13:09:17.085Z,14.78
2022-11-18T13:11:51.689Z,14.68
2022-11-18T13:14:44.163Z,14.67
2022-11-18T13:17:49.504Z,14.51
2022-11-18T13:20:31.037Z,14.49
2022-11-18T13:23:19.661Z,14.42
2022-11-18T13:25:50.194Z,14.35
2022-11-18T13:28:30.341Z,14.31
2022-11-18T13:31:06.601Z,14.36
2022-11-18T13:33:37.505Z,14.44
2022-11-18T13:36:19.000Z,14.49
2022-11-18T13:38:57.470Z,14.53
2022-11-18T13:41:32.773Z,14.61
2022-11-18T13:44:18.671Z,14.66
2022-11-18T13:46:52.587Z,14.56
2022-11-18T13:49:25.409Z,14.62
2022-11-18T13:51:53.828Z,14.57
2022-11-18T13:54:25.976Z,14.46
2022-11-18T13:56:54.768Z,14.43
2022-11-18T13:59:25.457Z,14.41
2022-11-18T14:01:57.554Z,14.39
2022-11-18T14:04:28.506Z,14.32
2022-11-18T14:07:25.568Z,14.24
2022-11-18T14:09:56.189Z,14.16
2022-11-18T14:12:28.830Z,13.96
2022-11-18T14:15:20.670Z,13.83
2022-11-18T14:17:59.632Z,13.84
2022-11-18T14:20:29.377Z,13.83
2022-11-18T14:22:59.469Z,13.86
2022-11-18T14:25:31.210Z,13.92
2022-11-18T14:28:10.460Z,13.97
2022-11-18T14:30:39.904Z,13.94
2022-11-18T14:33:14.806Z,13.87
2022-11-18T14:35:44.811Z,13.76
2022-11-18T14:38:36.681Z,13.72
2022-11-18T14:41:04.907Z,13.72
2022-11-18T14:43:33.062Z,13.73
2022-11-18T14:46:03.531Z,13.71
2022-11-18T14:48:33.438Z,13.69
2022-11-18T14:51:02.020Z,13.74
2022-11-18T14:53:30.089Z,13.67
2022-11-18T14:56:00.673Z,13.58
2022-11-18T14:58:28.791Z,13.53
2022-11-18T15:00:57.035Z,13.47
2022-11-18T15:03:25.248Z,13.37
2022-11-18T15:05:54.726Z,13.45
2022-11-18T15:08:22.917Z,13.41
2022-11-18T15:10:51.086Z,13.37
2022-11-18T15:13:19.208Z,13.40
2022-11-18T15:15:47.548Z,13.34
2022-11-18T15:18:15.601Z,13.17
2022-11-18T15:20:43.774Z,13.05
2022-11-18T15:23:13.295Z,13.04
2022-11-18T15:25:41.375Z,13.01
2022-11-18T15:28:11.309Z,13.06
2022-11-18T15:30:39.564Z,13.02
2022-11-18T15:33:07.716Z,12.97
2022-11-18T15:35:38.665Z,12.88
2022-11-18T15:38:06.831Z,12.87
2022-11-18T15:40:36.916Z,12.94
2022-11-18T15:43:05.091Z,12.94
2022-11-18T15:45:33.150Z,12.88
2022-11-18T15:48:01.315Z,12.86
2022-11-18T15:50:29.557Z,12.93
2022-11-18T15:52:58.353Z,12.86
2022-11-18T15:55:26.422Z,12.82
2022-11-18T15:57:55.906Z,12.73
2022-11-18T16:00:24.185Z,12.68
2022-11-18T16:02:52.375Z,12.71
2022-11-18T16:05:20.416Z,12.75
2022-11-18T16:07:54.329Z,12.75
2022-11-18T16:10:42.800Z,12.82
2022-11-18T16:13:12.312Z,12.83
2022-11-18T16:15:49.430Z,12.92
2022-11-18T16:18:19.628Z,13.01
2022-11-18T16:20:47.840Z,13.06
2022-11-18T16:23:15.944Z,13.01
2022-11-18T16:25:47.949Z,13.06
2022-11-18T16:28:17.493Z,12.91
2022-11-18T16:31:06.966Z,12.84
2022-11-18T16:33:35.122Z,12.86
2022-11-18T16:36:03.386Z,12.94
2022-11-18T16:38:31.525Z,13.01
2022-11-18T16:41:00.500Z,13.05
2022-11-18T16:43:29.985Z,12.96
2022-11-18T16:45:58.089Z,12.82
2022-11-18T16:48:26.160Z,12.76
2022-11-18T16:51:19.311Z,12.67
2022-11-18T16:53:51.973Z,12.55
2022-11-18T16:56:20.457Z,12.54
2022-11-18T16:58:50.408Z,12.43
2022-11-18T17:01:23.319Z,12.41
2022-11-18T17:03:55.327Z,12.34
2022-11-18T17:06:24.695Z,12.27
2022-11-18T17:08:53.003Z,12.25
2022-11-18T17:11:21.288Z,12.25
2022-11-18T17:13:56.337Z,12.13
2022-11-18T17:16:26.147Z,12.17
2022-11-18T17:18:58.665Z,12.21
2022-11-18T17:21:28.215Z,12.24
2022-11-18T17:23:56.799Z,12.30
2022-11-18T17:26:26.762Z,12.57
2022-11-18T17:28:57.821Z,12.94
2022-11-18T17:31:26.738Z,13.09
2022-11-18T17:33:56.442Z,13.16
2022-11-18T17:36:26.403Z,13.19
2022-11-18T17:38:59.615Z,13.22
2022-11-18T17:41:46.792Z,13.25
2022-11-18T17:44:18.681Z,13.41
2022-11-18T17:46:48.106Z,13.46
2022-11-18T17:49:18.252Z,13.53
2022-11-18T17:51:47.176Z,13.59
2022-11-18T17:54:15.559Z,13.57
2022-11-18T17:56:44.056Z,13.62
2022-11-18T17:59:14.588Z,13.65
2022-11-18T18:01:44.526Z,13.64
2022-11-18T18:04:14.634Z,13.69
2022-11-18T18:06:42.830Z,13.67
2022-11-18T18:09:10.964Z,13.69
2022-11-18T18:11:39.195Z,13.83
2022-11-18T18:14:12.899Z,13.93
2022-11-18T18:16:45.426Z,14.08
2022-11-18T18:19:16.606Z,13.94
2022-11-18T18:21:45.512Z,13.95
2022-11-18T18:24:14.794Z,13.91
2022-11-18T18:26:42.998Z,13.91
2022-11-18T18:29:12.393Z,13.91
2022-11-18T18:31:40.474Z,13.83
2022-11-18T18:34:09.999Z,13.92
2022-11-18T18:36:38.120Z,13.78
2022-11-18T18:39:06.454Z,13.80
2022-11-18T18:41:34.866Z,13.86
2022-11-18T18:44:02.967Z,13.88
2022-11-18T18:46:34.202Z,13.97
2022-11-18T18:49:05.656Z,13.99
2022-11-18T18:51:38.089Z,13.93
2022-11-18T18:54:07.362Z,13.91
2022-11-18T18:56:35.510Z,13.97
2022-11-18T18:59:03.645Z,13.97
2022-11-18T19:01:31.910Z,13.86
2022-11-18T19:04:01.677Z,13.77
2022-11-18T19:09:21.906Z,13.74
2022-11-18T19:12:10.111Z,13.73
2022-11-18T19:14:38.329Z,13.69
2022-11-18T19:20:19.382Z,13.87
2022-11-18T19:22:47.516Z,13.86
2022-11-18T19:25:19.381Z,13.81
2022-11-18T19:27:47.482Z,13.77
2022-11-18T19:30:16.071Z,13.69
2022-11-18T19:32:44.209Z,13.63
2022-11-18T19:35:13.041Z,13.61
2022-11-18T19:37:41.123Z,13.60
2022-11-18T19:40:11.202Z,13.58
2022-11-18T19:42:42.356Z,13.65
2022-11-18T19:45:12.507Z,13.56
2022-11-18T19:47:40.781Z,13.54
2022-11-18T19:50:09.714Z,13.67
2022-11-18T19:52:37.982Z,13.90
2022-11-18T19:55:08.067Z,13.96
2022-11-18T19:57:36.227Z,14.12
2022-11-18T20:00:08.157Z,14.22
2022-11-18T20:02:36.200Z,14.30
2022-11-18T20:05:22.142Z,14.39
2022-11-18T20:07:50.193Z,14.47
2022-11-18T20:10:18.780Z,14.63
2022-11-18T20:12:46.893Z,14.77
2022-11-18T20:15:16.455Z,14.80
2022-11-18T20:17:44.565Z,14.87
2022-11-18T20:20:13.032Z,15.01
2022-11-18T20:22:41.280Z,15.17
2022-11-18T20:25:10.398Z,15.31
2022-11-18T20:27:38.442Z,15.40
2022-11-18T20:30:08.041Z,15.43
2022-11-18T20:32:37.518Z,15.34
2022-11-18T20:35:06.395Z,15.29
2022-11-18T20:37:34.550Z,15.38
2022-11-18T20:40:02.668Z,15.38
2022-11-18T20:42:48.688Z,15.49
2022-11-18T20:45:16.864Z,15.50
2022-11-18T20:47:46.279Z,15.60
2022-11-18T20:50:14.498Z,15.64
2022-11-18T20:52:42.522Z,15.64
2022-11-18T20:55:11.623Z,15.63
2022-11-18T20:57:39.657Z,15.65
2022-11-18T21:00:09.230Z,15.60
2022-11-18T21:02:37.323Z,15.54
2022-11-18T21:05:07.701Z,15.55
2022-11-18T21:07:36.032Z,15.64
2022-11-18T21:10:04.213Z,15.78
2022-11-18T21:12:32.326Z,15.81
2022-11-18T21:14:59.397Z,15.75
2022-11-18T21:17:27.456Z,15.76
2022-11-18T21:19:55.650Z,15.83
2022-11-18T21:22:24.322Z,15.83
2022-11-18T21:24:52.361Z,15.73
2022-11-18T21:27:20.488Z,15.77
2022-11-18T21:29:50.020Z,15.66
2022-11-18T21:32:18.070Z,15.67
2022-11-18T21:34:46.162Z,15.60
2022-11-18T21:37:14.305Z,15.52
2022-11-18T21:39:43.764Z,15.54
2022-11-18T21:42:11.873Z,15.52
2022-11-18T21:44:39.988Z,15.57
2022-11-18T21:47:08.153Z,15.45
2022-11-18T21:49:36.221Z,15.34
2022-11-18T21:52:04.375Z,15.33
2022-11-18T21:54:35.048Z,15.21
2022-11-18T21:57:04.578Z,15.15
2022-11-18T21:59:32.665Z,15.07
2022-11-18T22:02:00.805Z,14.99
2022-11-18T22:04:57.704Z,14.96
2022-11-18T22:07:27.280Z,14.85
2022-11-18T22:09:55.799Z,14.84
2022-11-18T22:12:25.355Z,14.81
2022-11-18T22:14:53.561Z,14.79
2022-11-18T22:17:21.635Z,14.78
2022-11-18T22:19:49.717Z,14.67
2022-11-18T22:22:18.493Z,14.60
2022-11-18T22:24:46.577Z,14.54
2022-11-18T22:27:14.670Z,14.52
2022-11-18T22:29:44.333Z,14.48
2022-11-18T22:32:12.484Z,14.40
2022-11-18T22:34:40.574Z,14.39
2022-11-18T22:37:08.647Z,14.36
2022-11-18T22:39:36.858Z,14.36
2022-11-18T22:42:22.640Z,14.32
2022-11-18T22:44:52.148Z,14.36
2022-11-18T22:47:21.309Z,14.40
2022-11-18T22:49:53.497Z,14.43
2022-11-18T22:52:24.293Z,14.41
2022-11-18T22:54:52.461Z,14.46
2022-11-18T22:57:21.639Z,14.41
2022-11-18T22:59:51.066Z,14.40
2022-11-18T23:02:19.309Z,14.44
2022-11-18T23:04:47.412Z,14.48
2022-11-18T23:07:15.587Z,14.53
2022-11-18T23:09:43.809Z,14.56
2022-11-18T23:12:29.531Z,14.57
2022-11-18T23:14:59.052Z,14.54
2022-11-18T23:17:27.213Z,14.59
2022-11-18T23:19:55.390Z,14.63
2022-11-18T23:22:23.548Z,14.61
2022-11-18T23:24:51.569Z,14.52
2022-11-18T23:27:19.714Z,14.47
2022-11-18T23:29:47.835Z,14.44
2022-11-18T23:32:17.354Z,14.39
2022-11-18T23:34:45.379Z,14.51
2022-11-18T23:37:13.450Z,14.52
2022-11-18T23:39:41.635Z,14.60
2022-11-18T23:42:09.753Z,14.60
2022-11-18T23:44:46.697Z,14.63
2022-11-18T23:47:15.151Z,14.59
2022-11-18T23:49:44.597Z,14.59
2022-11-18T23:52:12.833Z,14.63
2022-11-18T23:54:41.067Z,14.61
2022-11-18T23:57:09.287Z,14.65
2022-11-18T23:59:37.366Z,14.65
